createdAt,value
2023-04-14T00:00:33.707Z,100.00
2023-04-14T00:03:03.020Z,100.00
2023-04-14T00:05:31.819Z,100.00
2023-04-14T00:08:00.227Z,100.00
2023-04-14T00:10:29.156Z,100.00
2023-04-14T00:12:57.476Z,100.00
2023-04-14T00:15:27.332Z,100.00
2023-04-14T00:17:55.758Z,100.00
2023-04-14T00:20:24.234Z,100.00
2023-04-14T00:22:53.010Z,100.00
2023-04-14T00:25:21.310Z,100.00
2023-04-14T00:27:49.718Z,100.00
2023-04-14T00:30:18.450Z,100.00
2023-04-14T00:32:48.205Z,100.00
2023-04-14T00:35:16.677Z,100.00
2023-04-14T00:37:46.388Z,100.00
2023-04-14T00:40:14.962Z,100.00
2023-04-14T00:42:44.581Z,100.00
2023-04-14T00:45:13.745Z,100.00
2023-04-14T00:47:47.062Z,100.00
2023-04-14T00:50:19.398Z,100.00
2023-04-14T00:52:50.200Z,100.00
2023-04-14T00:55:20.685Z,100.00
2023-04-14T00:57:49.393Z,100.00
2023-04-14T01:00:18.286Z,100.00
2023-04-14T01:02:47.072Z,100.00
2023-04-14T01:05:17.323Z,100.00
2023-04-14T01:07:46.293Z,100.00
2023-04-14T01:10:14.607Z,100.00
2023-04-14T01:13:07.257Z,100.00
2023-04-14T01:15:41.521Z,100.00
2023-04-14T01:18:19.837Z,100.00
2023-04-14T01:20:53.223Z,100.00
2023-04-14T01:23:25.286Z,100.00
2023-04-14T01:26:17.352Z,100.00
2023-04-14T01:29:31.815Z,100.00
2023-04-14T01:32:06.978Z,100.00
2023-04-14T01:34:39.123Z,100.00
2023-04-14T01:37:10.537Z,100.00
2023-04-14T01:39:41.757Z,100.00
2023-04-14T01:42:14.454Z,100.00
2023-04-14T01:44:44.281Z,100.00
2023-04-14T01:47:17.671Z,100.00
2023-04-14T01:49:48.225Z,100.00
2023-04-14T01:52:18.528Z,100.00
2023-04-14T01:54:51.374Z,100.00
2023-04-14T01:57:23.023Z,100.00
2023-04-14T01:59:56.512Z,100.00
2023-04-14T02:02:27.749Z,100.00
2023-04-14T02:04:57.594Z,100.00
2023-04-14T02:07:27.588Z,100.00
2023-04-14T02:09:58.007Z,100.00
2023-04-14T02:12:29.328Z,100.00
2023-04-14T02:15:01.223Z,100.00
2023-04-14T02:17:32.318Z,100.00
2023-04-14T02:20:02.294Z,100.00
2023-04-14T02:22:30.621Z,100.00
2023-04-14T02:24:58.972Z,100.00
2023-04-14T02:27:32.823Z,100.00
2023-04-14T02:30:05.295Z,100.00
2023-04-14T02:32:36.970Z,100.00
2023-04-14T02:35:12.149Z,100.00
2023-04-14T02:37:43.834Z,100.00
2023-04-14T02:40:17.363Z,100.00
2023-04-14T02:42:49.427Z,100.00
2023-04-14T02:45:24.759Z,100.00
2023-04-14T02:47:58.241Z,100.00
2023-04-14T02:50:29.665Z,100.00
2023-04-14T02:53:00.079Z,100.00
2023-04-14T02:55:29.988Z,100.00
2023-04-14T02:57:59.824Z,100.00
2023-04-14T03:00:29.601Z,100.00
2023-04-14T03:03:01.283Z,100.00
2023-04-14T03:05:31.407Z,100.00
2023-04-14T03:08:02.269Z,100.00
2023-04-14T03:10:31.818Z,100.00
2023-04-14T03:13:03.014Z,100.00
2023-04-14T03:15:33.741Z,100.00
2023-04-14T03:18:04.475Z,100.00
2023-04-14T03:20:34.377Z,100.00
2023-04-14T03:23:05.638Z,100.00
2023-04-14T03:25:38.284Z,100.00
2023-04-14T03:28:13.051Z,100.00
2023-04-14T03:30:45.062Z,100.00
2023-04-14T03:33:20.062Z,100.00
2023-04-14T03:35:50.703Z,100.00
2023-04-14T03:38:21.641Z,100.00
2023-04-14T03:40:51.688Z,100.00
2023-04-14T03:43:23.935Z,100.00
2023-04-14T03:45:52.498Z,100.00
2023-04-14T03:48:26.475Z,100.00
2023-04-14T03:50:57.799Z,100.00
2023-04-14T03:53:27.810Z,100.00
2023-04-14T03:55:59.855Z,100.00
2023-04-14T03:58:30.079Z,100.00
2023-04-14T04:00:59.044Z,100.00
2023-04-14T04:03:30.800Z,100.00
2023-04-14T04:06:00.174Z,100.00
2023-04-14T04:08:29.854Z,100.00
2023-04-14T04:10:59.708Z,100.00
2023-04-14T04:13:29.107Z,96.56
2023-04-14T04:15:58.431Z,92.22
2023-04-14T04:18:32.570Z,87.05
2023-04-14T04:21:02.437Z,81.56
2023-04-14T04:23:34.759Z,78.37
2023-04-14T04:26:03.846Z,72.58
2023-04-14T04:28:32.645Z,66.07
2023-04-14T04:31:02.465Z,59.71
2023-04-14T04:33:32.999Z,58.26
2023-04-14T04:36:02.693Z,56.87
2023-04-14T04:38:31.640Z,57.13
2023-04-14T04:41:00.198Z,59.89
2023-04-14T04:43:28.612Z,58.80
2023-04-14T04:46:26.165Z,55.02
2023-04-14T04:48:56.941Z,51.37
2023-04-14T04:51:25.726Z,51.73
2023-04-14T04:53:54.098Z,52.50
2023-04-14T04:56:22.846Z,55.72
2023-04-14T04:58:54.870Z,58.52
2023-04-14T05:01:23.208Z,62.39
2023-04-14T05:03:51.802Z,64.05
2023-04-14T05:06:21.922Z,65.61
2023-04-14T05:08:52.804Z,65.21
2023-04-14T05:11:21.302Z,64.46
2023-04-14T05:13:49.775Z,64.75
2023-04-14T05:16:18.637Z,64.68
2023-04-14T05:18:47.045Z,69.54
2023-04-14T05:21:16.117Z,74.06
2023-04-14T05:23:48.011Z,74.90
2023-04-14T05:28:48.300Z,78.36
2023-04-14T05:31:16.730Z,78.76
2023-04-14T05:33:45.346Z,78.55
2023-04-14T05:36:13.783Z,78.29
2023-04-14T05:38:42.235Z,78.19
2023-04-14T05:41:12.120Z,73.79
2023-04-14T05:43:40.516Z,73.18
2023-04-14T05:46:09.086Z,70.61
2023-04-14T05:48:38.341Z,70.90
2023-04-14T05:51:06.749Z,68.65
2023-04-14T05:53:35.345Z,67.80
2023-04-14T05:56:03.859Z,67.01
2023-04-14T05:58:33.819Z,64.61
2023-04-14T06:01:04.067Z,63.21
2023-04-14T06:03:33.099Z,61.63
2023-04-14T06:06:01.563Z,64.68
2023-04-14T06:08:30.563Z,65.87
2023-04-14T06:10:59.052Z,62.53
2023-04-14T06:13:28.995Z,60.23
2023-04-14T06:16:00.969Z,58.39
2023-04-14T06:18:30.306Z,59.37
2023-04-14T06:20:59.278Z,58.50
2023-04-14T06:23:28.148Z,58.42
2023-04-14T06:25:57.987Z,58.67
2023-04-14T06:28:26.523Z,60.46
2023-04-14T06:30:55.338Z,61.58
2023-04-14T06:33:25.219Z,62.26
2023-04-14T06:35:53.695Z,59.08
2023-04-14T06:38:22.393Z,58.48
2023-04-14T06:40:53.213Z,59.54
2023-04-14T06:43:21.727Z,62.48
2023-04-14T06:45:51.042Z,65.81
2023-04-14T06:48:19.617Z,66.49
2023-04-14T06:50:56.065Z,64.58
2023-04-14T06:53:24.900Z,63.91
2023-04-14T06:55:59.630Z,59.39
2023-04-14T06:58:28.808Z,59.54
2023-04-14T07:00:58.213Z,58.40
2023-04-14T07:03:27.800Z,55.88
2023-04-14T07:06:04.045Z,59.80
2023-04-14T07:08:33.151Z,59.61
2023-04-14T07:11:02.328Z,60.19
2023-04-14T07:13:30.753Z,58.43
2023-04-14T07:15:59.307Z,57.71
2023-04-14T07:18:27.905Z,57.49
2023-04-14T07:20:58.745Z,56.60
2023-04-14T07:23:27.414Z,57.14
2023-04-14T07:25:57.242Z,56.63
2023-04-14T07:28:27.121Z,59.15
2023-04-14T07:30:55.979Z,59.20
2023-04-14T07:33:27.206Z,58.98
2023-04-14T07:36:02.288Z,61.94
2023-04-14T07:38:33.746Z,61.87
2023-04-14T07:41:04.866Z,60.82
2023-04-14T07:43:35.839Z,61.51
2023-04-14T07:46:06.002Z,62.16
2023-04-14T07:48:35.457Z,62.90
2023-04-14T07:51:04.613Z,63.06
2023-04-14T07:53:35.227Z,61.26
2023-04-14T07:56:03.904Z,59.51
2023-04-14T07:58:32.379Z,57.25
2023-04-14T08:01:00.857Z,57.16
2023-04-14T08:03:29.364Z,55.69
2023-04-14T08:05:58.616Z,56.08
2023-04-14T08:08:27.568Z,56.42
2023-04-14T08:10:57.332Z,55.46
2023-04-14T08:13:25.610Z,55.92
2023-04-14T08:15:53.986Z,55.56
2023-04-14T08:18:22.511Z,55.07
2023-04-14T08:20:50.981Z,56.00
2023-04-14T08:23:19.767Z,56.91
2023-04-14T08:25:48.305Z,56.47
2023-04-14T08:28:18.486Z,56.93
2023-04-14T08:30:47.863Z,55.71
2023-04-14T08:33:16.551Z,55.33
2023-04-14T08:35:44.968Z,56.12
2023-04-14T08:38:13.316Z,55.13
2023-04-14T08:40:42.904Z,54.79
2023-04-14T08:43:14.801Z,53.58
2023-04-14T08:45:45.634Z,54.32
2023-04-14T08:48:18.293Z,56.07
2023-04-14T08:51:06.614Z,55.16
2023-04-14T08:53:37.434Z,54.44
2023-04-14T08:56:09.618Z,56.23
2023-04-14T08:58:38.049Z,56.02
2023-04-14T09:01:08.982Z,57.36
2023-04-14T09:03:39.417Z,58.90
2023-04-14T09:06:07.871Z,58.58
2023-04-14T09:08:37.706Z,59.94
2023-04-14T09:11:06.494Z,61.85
2023-04-14T09:13:36.227Z,61.13
2023-04-14T09:16:04.904Z,61.48
2023-04-14T09:18:35.435Z,61.14
2023-04-14T09:21:49.686Z,61.24
2023-04-14T09:23:53.915Z,63.60
2023-04-14T09:26:22.649Z,63.10
2023-04-14T09:28:52.577Z,62.74
2023-04-14T09:31:22.016Z,62.65
2023-04-14T09:33:51.995Z,62.24
2023-04-14T09:36:21.354Z,62.83
2023-04-14T09:38:50.856Z,62.73
2023-04-14T09:41:21.883Z,62.13
2023-04-14T09:43:50.730Z,61.14
2023-04-14T09:46:19.231Z,60.30
2023-04-14T09:48:57.115Z,60.22
2023-04-14T09:51:29.730Z,60.78
2023-04-14T09:54:05.353Z,64.53
2023-04-14T09:56:34.182Z,67.66
2023-04-14T09:59:04.100Z,68.86
2023-04-14T10:01:35.034Z,70.54
2023-04-14T10:04:05.141Z,70.97
2023-04-14T10:06:33.607Z,72.53
2023-04-14T10:09:02.995Z,70.66
2023-04-14T10:11:33.139Z,72.12
2023-04-14T10:14:04.036Z,71.58
2023-04-14T10:16:33.425Z,72.05
2023-04-14T10:19:03.046Z,74.83
2023-04-14T10:21:34.372Z,77.96
2023-04-14T10:24:03.117Z,76.67
2023-04-14T10:26:31.536Z,75.42
2023-04-14T10:29:02.689Z,74.63
2023-04-14T10:31:36.060Z,73.78
2023-04-14T10:34:13.473Z,73.63
2023-04-14T10:36:43.872Z,73.35
2023-04-14T10:39:13.439Z,72.36
2023-04-14T10:41:49.779Z,74.28
2023-04-14T10:44:25.909Z,73.38
2023-04-14T10:46:56.577Z,71.31
2023-04-14T10:49:30.789Z,71.65
2023-04-14T10:52:02.601Z,72.15
2023-04-14T10:54:50.190Z,72.26
2023-04-14T10:57:20.274Z,75.97
2023-04-14T10:59:50.009Z,76.69
2023-04-14T11:02:26.983Z,77.27
2023-04-14T11:05:06.605Z,74.50
2023-04-14T11:07:45.799Z,73.27
2023-04-14T11:10:35.110Z,72.33
2023-04-14T11:13:05.310Z,72.46
2023-04-14T11:15:47.428Z,73.00
2023-04-14T11:18:16.995Z,71.64
2023-04-14T11:20:45.882Z,72.76
2023-04-14T11:23:16.669Z,74.38
2023-04-14T11:25:45.722Z,73.99
2023-04-14T11:28:14.031Z,74.89
2023-04-14T11:30:43.356Z,72.62
2023-04-14T11:33:12.862Z,72.00
2023-04-14T11:35:44.114Z,69.67
2023-04-14T11:38:12.908Z,69.22
2023-04-14T11:40:42.689Z,69.32
2023-04-14T11:43:11.204Z,70.34
2023-04-14T11:45:44.107Z,68.23
2023-04-14T11:48:14.354Z,67.41
2023-04-14T11:50:44.235Z,66.55
2023-04-14T11:53:13.905Z,67.63
2023-04-14T11:55:46.216Z,66.54
2023-04-14T11:58:15.415Z,65.78
2023-04-14T12:00:44.813Z,65.64
2023-04-14T12:03:13.344Z,65.64
2023-04-14T12:05:42.061Z,65.76
2023-04-14T12:08:12.768Z,66.22
2023-04-14T12:10:42.402Z,66.84
2023-04-14T12:13:13.029Z,65.98
2023-04-14T12:15:43.717Z,65.53
2023-04-14T12:18:14.732Z,65.69
2023-04-14T12:20:44.413Z,64.75
2023-04-14T12:23:13.103Z,66.17
2023-04-14T12:25:41.753Z,67.91
2023-04-14T12:28:12.716Z,69.43
2023-04-14T12:30:52.776Z,69.24
2023-04-14T12:33:24.639Z,69.80
2023-04-14T12:35:53.746Z,72.03
2023-04-14T12:38:28.148Z,71.63
2023-04-14T12:40:56.798Z,71.85
2023-04-14T12:43:31.504Z,72.13
2023-04-14T12:46:00.337Z,71.83
2023-04-14T12:48:42.581Z,71.30
2023-04-14T12:51:13.135Z,73.48
2023-04-14T12:53:42.733Z,73.52
2023-04-14T12:56:12.483Z,73.34
2023-04-14T12:58:43.828Z,73.58
2023-04-14T13:01:13.179Z,73.83
2023-04-14T13:03:44.843Z,72.06
2023-04-14T13:06:16.386Z,73.75
2023-04-14T13:08:46.264Z,75.21
2023-04-14T13:11:14.976Z,75.41
2023-04-14T13:13:45.865Z,74.90
2023-04-14T13:16:16.992Z,73.46
2023-04-14T13:18:47.640Z,72.42
2023-04-14T13:21:16.504Z,73.95
2023-04-14T13:23:44.950Z,73.35
2023-04-14T13:26:13.628Z,73.08
2023-04-14T13:28:42.009Z,74.40
2023-04-14T13:31:13.421Z,74.66
2023-04-14T13:33:41.784Z,74.35
2023-04-14T13:36:10.703Z,74.21
2023-04-14T13:38:38.973Z,75.09
2023-04-14T13:41:07.384Z,76.02
2023-04-14T13:43:36.328Z,75.27
2023-04-14T13:46:04.793Z,75.56
2023-04-14T13:48:34.648Z,75.27
2023-04-14T13:51:03.099Z,75.32
2023-04-14T13:53:31.420Z,73.72
2023-04-14T13:55:59.703Z,73.13
2023-04-14T13:58:28.404Z,75.17
2023-04-14T14:00:56.938Z,75.17
2023-04-14T14:03:26.000Z,75.53
2023-04-14T14:05:56.626Z,75.00
2023-04-14T14:08:24.909Z,74.24
2023-04-14T14:10:54.505Z,74.38
2023-04-14T14:13:22.802Z,75.44
2023-04-14T14:15:51.190Z,76.28
2023-04-14T14:18:19.544Z,77.69
2023-04-14T14:20:48.428Z,78.02
2023-04-14T14:23:18.527Z,77.08
2023-04-14T14:25:47.541Z,77.24
2023-04-14T14:28:15.936Z,78.56
2023-04-14T14:30:44.310Z,78.54
2023-04-14T14:33:12.663Z,78.33
2023-04-14T14:35:41.031Z,77.48
2023-04-14T14:38:09.397Z,77.64
2023-04-14T14:40:39.352Z,78.68
2023-04-14T14:43:07.745Z,79.28
2023-04-14T14:45:36.082Z,80.14
2023-04-14T14:48:05.354Z,79.95
2023-04-14T14:50:33.767Z,80.50
2023-04-14T14:53:02.056Z,80.22
2023-04-14T14:55:30.368Z,80.90
2023-04-14T14:58:00.457Z,81.41
2023-04-14T15:00:28.751Z,82.61
2023-04-14T15:02:57.280Z,82.05
2023-04-14T15:05:25.776Z,82.57
2023-04-14T15:07:54.100Z,82.40
2023-04-14T15:10:22.402Z,82.99
2023-04-14T15:12:50.852Z,83.66
2023-04-14T15:15:21.036Z,83.86
2023-04-14T15:17:49.487Z,83.12
2023-04-14T15:20:18.056Z,83.78
2023-04-14T15:22:46.384Z,83.13
2023-04-14T15:25:14.819Z,82.83
2023-04-14T15:27:43.123Z,83.29
2023-04-14T15:30:12.191Z,84.13
2023-04-14T15:32:41.952Z,84.49
2023-04-14T15:35:11.396Z,86.56
2023-04-14T15:37:39.696Z,87.00
2023-04-14T15:40:11.262Z,87.28
2023-04-14T15:42:40.713Z,87.10
2023-04-14T15:45:10.026Z,88.45
2023-04-14T15:47:38.399Z,88.14
2023-04-14T15:50:10.698Z,88.45
2023-04-14T15:52:41.326Z,89.27
2023-04-14T15:55:11.192Z,92.14
2023-04-14T15:57:39.519Z,92.72
2023-04-14T16:00:09.258Z,93.44
2023-04-14T16:02:38.381Z,94.56
2023-04-14T16:05:09.269Z,95.27
2023-04-14T16:07:37.624Z,97.20
2023-04-14T16:10:07.164Z,96.00
2023-04-14T16:12:36.746Z,97.00
2023-04-14T16:15:08.849Z,99.49
2023-04-14T16:17:37.207Z,99.06
2023-04-14T16:20:07.708Z,100.00
2023-04-14T16:22:36.082Z,98.75
2023-04-14T16:25:05.978Z,99.28
2023-04-14T16:27:34.479Z,99.54
2023-04-14T16:30:03.404Z,100.00
2023-04-14T16:32:31.792Z,100.00
2023-04-14T16:35:00.286Z,100.00
2023-04-14T16:37:32.071Z,100.00
2023-04-14T16:40:00.733Z,98.32
2023-04-14T16:42:29.222Z,95.07
2023-04-14T16:44:58.338Z,92.08
2023-04-14T16:47:27.954Z,91.60
2023-04-14T16:49:56.374Z,92.10
2023-04-14T16:52:26.373Z,92.00
2023-04-14T16:54:56.162Z,91.34
2023-04-14T16:57:24.559Z,90.66
2023-04-14T16:59:52.897Z,91.10
2023-04-14T17:02:21.429Z,89.91
2023-04-14T17:04:50.089Z,88.78
2023-04-14T17:07:18.535Z,87.92
2023-04-14T17:09:47.261Z,87.71
2023-04-14T17:12:17.735Z,88.27
2023-04-14T17:14:46.376Z,88.84
2023-04-14T17:17:14.717Z,88.66
2023-04-14T17:19:43.073Z,88.38
2023-04-14T17:22:12.255Z,89.05
2023-04-14T17:24:41.416Z,90.08
2023-04-14T17:27:09.831Z,90.21
2023-04-14T17:29:41.147Z,89.61
2023-04-14T17:32:10.809Z,87.75
2023-04-14T17:34:39.461Z,87.86
2023-04-14T17:37:07.832Z,86.77
2023-04-14T17:39:36.164Z,86.78
2023-04-14T17:42:04.691Z,85.26
2023-04-14T17:44:34.371Z,82.58
2023-04-14T17:47:12.919Z,82.67
2023-04-14T17:49:41.859Z,81.36
2023-04-14T17:52:11.208Z,78.46
2023-04-14T17:54:39.557Z,77.21
2023-04-14T17:57:10.224Z,76.59
2023-04-14T17:59:38.912Z,76.41
2023-04-14T18:02:09.862Z,77.26
2023-04-14T18:04:38.410Z,75.87
2023-04-14T18:07:07.735Z,74.54
2023-04-14T18:09:36.224Z,74.31
2023-04-14T18:12:05.221Z,75.03
2023-04-14T18:14:34.906Z,75.76
2023-04-14T18:17:03.574Z,76.41
2023-04-14T18:19:33.564Z,76.44
2023-04-14T18:22:03.304Z,74.56
2023-04-14T18:28:02.753Z,72.53
2023-04-14T18:29:53.062Z,71.95
2023-04-14T18:32:22.461Z,71.25
2023-04-14T18:34:52.723Z,70.92
2023-04-14T18:37:21.200Z,71.17
2023-04-14T18:39:49.829Z,72.48
2023-04-14T18:42:18.300Z,73.09
2023-04-14T18:44:46.822Z,72.83
2023-04-14T18:47:15.940Z,72.28
2023-04-14T18:49:44.302Z,72.63
2023-04-14T18:52:14.256Z,73.02
2023-04-14T18:54:42.911Z,72.63
2023-04-14T18:57:11.205Z,72.22
2023-04-14T18:59:39.866Z,72.42
2023-04-14T19:02:10.547Z,72.91
2023-04-14T19:04:39.366Z,73.10
2023-04-14T19:07:07.945Z,72.94
2023-04-14T19:09:37.757Z,72.75
2023-04-14T19:12:09.318Z,72.12
2023-04-14T19:14:44.969Z,72.29
2023-04-14T19:17:13.387Z,73.42
2023-04-14T19:19:41.927Z,74.02
2023-04-14T19:22:10.378Z,74.22
2023-04-14T19:24:40.518Z,74.12
2023-04-14T19:27:09.000Z,74.30
2023-04-14T19:29:38.192Z,74.38
2023-04-14T19:32:06.703Z,75.16
2023-04-14T19:34:35.545Z,75.94
2023-04-14T19:37:04.167Z,76.74
2023-04-14T19:39:32.751Z,78.01
2023-04-14T19:42:03.404Z,78.24
2023-04-14T19:44:32.363Z,78.38
2023-04-14T19:47:00.752Z,78.54
2023-04-14T19:49:29.483Z,80.42
2023-04-14T19:51:57.944Z,81.05
2023-04-14T19:54:26.516Z,81.69
2023-04-14T19:56:55.141Z,82.05
2023-04-14T19:59:24.963Z,83.05
2023-04-14T20:01:53.898Z,84.49
2023-04-14T20:04:22.394Z,84.17
2023-04-14T20:06:50.675Z,85.19
2023-04-14T20:09:18.975Z,84.59
2023-04-14T20:11:47.554Z,83.97
2023-04-14T20:14:16.311Z,83.89
2023-04-14T20:16:46.182Z,84.94
2023-04-14T20:19:14.847Z,83.79
2023-04-14T20:21:43.888Z,83.89
2023-04-14T20:24:12.335Z,84.09
2023-04-14T20:26:42.750Z,84.15
2023-04-14T20:29:11.801Z,84.98
2023-04-14T20:31:41.720Z,84.78
2023-04-14T20:34:12.263Z,85.62
2023-04-14T20:36:40.533Z,86.62
2023-04-14T20:39:08.873Z,88.20
2023-04-14T20:41:37.645Z,89.53
2023-04-14T20:44:06.381Z,89.43
2023-04-14T20:46:35.221Z,89.90
2023-04-14T20:49:03.846Z,89.47
2023-04-14T20:51:33.977Z,89.61
2023-04-14T20:54:02.784Z,90.73
2023-04-14T20:56:32.028Z,90.42
2023-04-14T20:59:01.092Z,91.93
2023-04-14T21:01:29.751Z,92.83
2023-04-14T21:03:58.808Z,93.36
2023-04-14T21:06:27.309Z,94.00
2023-04-14T21:08:57.077Z,95.05
2023-04-14T21:11:25.454Z,94.74
2023-04-14T21:15:28.400Z,94.60
2023-04-14T21:16:42.226Z,95.19
2023-04-14T21:19:10.679Z,95.50
2023-04-14T21:21:39.204Z,95.44
2023-04-14T21:24:09.642Z,97.73
2023-04-14T21:26:38.023Z,95.34
2023-04-14T21:29:08.589Z,95.69
2023-04-14T21:31:37.067Z,97.74
2023-04-14T21:34:06.436Z,95.94
2023-04-14T21:36:34.825Z,93.84
2023-04-14T21:39:04.316Z,92.66
2023-04-14T21:41:35.923Z,92.67
2023-04-14T21:44:04.220Z,92.06
2023-04-14T21:46:34.913Z,87.99
2023-04-14T21:49:03.909Z,83.74
2023-04-14T21:51:32.451Z,81.14
2023-04-14T21:54:00.997Z,78.56
2023-04-14T21:56:29.277Z,77.21
2023-04-14T21:58:59.309Z,76.31
2023-04-14T22:01:29.853Z,75.38
2023-04-14T22:03:58.652Z,76.08
2023-04-14T22:06:27.885Z,74.87
2023-04-14T22:08:56.835Z,75.47
2023-04-14T22:11:25.302Z,74.50
2023-04-14T22:13:53.699Z,75.64
2023-04-14T22:16:23.570Z,76.42
2023-04-14T22:18:52.132Z,78.95
2023-04-14T22:21:20.943Z,80.17
2023-04-14T22:23:49.240Z,81.55
2023-04-14T22:26:17.541Z,82.15
2023-04-14T22:28:45.908Z,80.43
2023-04-14T22:31:14.896Z,78.21
2023-04-14T22:33:44.694Z,78.47
2023-04-14T22:36:13.342Z,79.27
2023-04-14T22:38:42.556Z,80.19
2023-04-14T22:41:11.005Z,81.08
2023-04-14T22:43:39.298Z,81.41
2023-04-14T22:46:07.659Z,82.28
2023-04-14T22:48:36.051Z,83.12
2023-04-14T22:51:05.813Z,84.01
2023-04-14T22:53:34.119Z,84.44
2023-04-14T22:56:03.694Z,84.89
2023-04-14T22:58:39.047Z,87.05
2023-04-14T23:01:18.983Z,86.94
2023-04-14T23:03:52.582Z,87.07
2023-04-14T23:06:23.422Z,88.50
2023-04-14T23:08:52.829Z,89.24
2023-04-14T23:11:21.522Z,90.41
2023-04-14T23:13:51.540Z,91.43
2023-04-14T23:16:20.868Z,91.76
2023-04-14T23:18:52.077Z,92.27
2023-04-14T23:21:22.393Z,93.50
2023-04-14T23:23:52.765Z,94.04
2023-04-14T23:26:22.878Z,94.25
2023-04-14T23:28:53.073Z,95.15
2023-04-14T23:31:21.968Z,95.26
2023-04-14T23:33:52.918Z,96.31
2023-04-14T23:36:21.614Z,96.93
2023-04-14T23:38:51.603Z,99.43
2023-04-14T23:41:20.225Z,100.00
2023-04-14T23:43:49.650Z,100.00
2023-04-14T23:46:18.104Z,100.00
2023-04-14T23:48:46.813Z,100.00
2023-04-14T23:51:19.678Z,100.00
2023-04-14T23:53:49.342Z,100.00
2023-04-14T23:56:19.279Z,100.00
2023-04-14T23:58:47.789Z,100.00
